Time;durP1;ratioP1;P1;durP2;ratioP2;P2;SDS_P1;SDS_P2;PMS_P1;PMS_P2;Temp;Humidity;BMP_temperature;BMP_pressure;BME280_temperature;BME280_humidity;BME280_pressure;Samples;Min_cycle;Max_cycle;Signal;HPM_P1;HPM_P2
2022/01/03 00:01:09;;;;;;;;;;;;;;;;;;5094884;28;19962;-33
2022/01/03 00:03:35;;;;;;;;;;;;;;;;;;5094799;28;19912;-29
2022/01/03 00:06:01;;;;;;;;;;;;;;;;;;5094886;28;19909;-34
2022/01/03 00:08:27;;;;;;;;;;;;;;;;;;5095090;28;19916;-33
2022/01/03 00:10:53;;;;;;;;;;;;;;;;;;5094813;28;19912;-35
2022/01/03 00:13:19;;;;;;;;;;;;;;;;;;5094743;28;19908;-34
2022/01/03 00:15:45;;;;;;;;;;;;;;;;;;5095015;28;19923;-30
2022/01/03 00:18:11;;;;;;;;;;;;;;;;;;5094454;28;20259;-30
2022/01/03 00:20:39;;;;;;;;;;;;;;;;;;5094688;28;19917;-33
2022/01/03 00:23:05;;;;;;;;;;;;;;;;;;5094909;28;20006;-30
2022/01/03 00:25:31;;;;;;;;;;;;;;;;;;5094696;28;20013;-32
2022/01/03 00:27:58;;;;;;;;;;;;;;;;;;5094649;28;20003;-32
2022/01/03 00:30:24;;;;;;;;;;;;;;;;;;5094596;28;19937;-33
2022/01/03 00:32:50;;;;;;;;;;;;;;;;;;5094679;28;19932;-33
2022/01/03 00:35:16;;;;;;;;;;;;;;;;;;5094489;28;19908;-31
2022/01/03 00:37:43;;;;;;;;;;;;;;;;;;5094572;28;19912;-30
2022/01/03 00:40:09;;;;;;;;;;;;;;;;;;5094364;28;19916;-31
2022/01/03 00:42:35;;;;;;;;;;;;;;;;;;5094445;28;20011;-35
2022/01/03 00:45:01;;;;;;;;;;;;;;;;;;5097270;28;19916;-29
2022/01/03 00:47:27;;;;;;;;;;;;;;;;;;5098593;28;20292;-32
2022/01/03 00:49:53;;;;;;;;;;;;;;;;;;5098125;28;19912;-36
2022/01/03 00:52:19;;;;;;;;;;;;;;;;;;5098162;28;19915;-31
2022/01/03 00:54:45;;;;;;;;;;;;;;;;;;5098146;28;19969;-30
2022/01/03 00:57:12;;;;;;;;;;;;;;;;;;5098155;28;20006;-33
2022/01/03 00:59:38;;;;;;;;;;;;;;;;;;5097926;28;19927;-29
2022/01/03 01:02:04;;;;;;;;;;;;;;;;;;5098216;28;19954;-28
2022/01/03 01:04:30;;;;;;;;;;;;;;;;;;5098262;28;19908;-30
2022/01/03 01:06:56;;;;;;;;;;;;;;;;;;5098092;28;19912;-36
2022/01/03 01:09:22;;;;;;;;;;;;;;;;;;5097830;28;20236;-32
2022/01/03 01:11:48;;;;;;;;;;;;;;;;;;5098083;28;19940;-36
2022/01/03 01:14:14;;;;;;;;;;;;;;;;;;5097744;28;19934;-33
2022/01/03 01:16:40;;;;;;;;;;;;;;;;;;5097724;28;19918;-33
2022/01/03 01:19:08;;;;;;;;;;;;;;;;;;5097431;28;20416;-29
2022/01/03 01:21:34;;;;;;;;;;;;;;;;;;5097919;28;19952;-31
2022/01/03 01:24:00;;;;;;;;;;;;;;;;;;5097529;28;20260;-31
2022/01/03 01:29:11;;;;;;;;;;;;;;;;;;5097596;28;20258;-30
2022/01/03 01:31:37;;;;;;;;;;;;;;;;;;5097456;28;19912;-31
2022/01/03 01:34:03;;;;;;;;;;;;;;;;;;5097396;28;19919;-33
2022/01/03 01:36:29;;;;;;;;;;;;;;;;;;5097607;28;20003;-31
2022/01/03 01:38:55;;;;;;;;;;;;;;;;;;5097247;28;19995;-34
2022/01/03 01:41:21;;;;;;;;;;;;;;;;;;5097544;28;19912;-30
2022/01/03 01:43:47;;;;;;;;;;;;;;;;;;5097202;28;19912;-33
2022/01/03 01:46:14;;;;;;;;;;;;;;;;;;5097153;28;19923;-30
2022/01/03 01:48:40;;;;;;;;;;;;;;;;;;5097083;28;19916;-32
2022/01/03 01:51:06;;;;;;;;;;;;;;;;;;5096013;28;19909;-30
2022/01/03 01:53:32;;;;;;;;;;;;;;;;;;5096906;28;19912;-32
2022/01/03 01:55:58;;;;;;;;;;;;;;;;;;5096045;28;20005;-32
2022/01/03 01:58:24;;;;;;;;;;;;;;;;;;5096828;28;20097;-32
2022/01/03 02:00:50;;;;;;;;;;;;;;;;;;5096827;28;20400;-31
2022/01/03 02:03:16;;;;;;;;;;;;;;;;;;5096770;28;19940;-34
2022/01/03 02:05:42;;;;;;;;;;;;;;;;;;5097013;28;19912;-30
2022/01/03 02:08:08;;;;;;;;;;;;;;;;;;5096734;28;19912;-32
2022/01/03 02:10:34;;;;;;;;;;;;;;;;;;5096658;28;19943;-27
2022/01/03 02:13:00;;;;;;;;;;;;;;;;;;5096588;28;19954;-30
2022/01/03 02:15:26;;;;;;;;;;;;;;;;;;5096581;28;19996;-28
2022/01/03 02:17:52;;;;;;;;;;;;;;;;;;5096529;28;19931;-30
2022/01/03 02:20:21;;;;;;;;;;;;;;;;;;5096651;28;19919;-32
2022/01/03 02:22:47;;;;;;;;;;;;;;;;;;5096350;28;19938;-30
2022/01/03 02:25:13;;;;;;;;;;;;;;;;;;5096409;28;20344;-32
2022/01/03 02:27:39;;;;;;;;;;;;;;;;;;5096360;28;19908;-33
2022/01/03 02:30:05;;;;;;;;;;;;;;;;;;5096568;28;19951;-28
2022/01/03 02:32:31;;;;;;;;;;;;;;;;;;5096482;28;19927;-30
2022/01/03 02:34:57;;;;;;;;;;;;;;;;;;5096165;28;19912;-35
2022/01/03 02:37:23;;;;;;;;;;;;;;;;;;5096200;28;19908;-32
2022/01/03 02:39:49;;;;;;;;;;;;;;;;;;5095951;28;19927;-33
2022/01/03 02:42:15;;;;;;;;;;;;;;;;;;5096303;28;20344;-31
2022/01/03 02:44:41;;;;;;;;;;;;;;;;;;5095949;28;19912;-33
2022/01/03 02:47:07;;;;;;;;;;;;;;;;;;5096044;28;19919;-29
2022/01/03 02:49:33;;;;;;;;;;;;;;;;;;5094992;28;19912;-30
2022/01/03 02:51:59;;;;;;;;;;;;;;;;;;5095832;28;19996;-28
2022/01/03 02:54:25;;;;;;;;;;;;;;;;;;5095819;28;20023;-31
2022/01/03 02:56:51;;;;;;;;;;;;;;;;;;5096100;28;19951;-30
2022/01/03 02:59:19;;;;;;;;;;;;;;;;;;5095690;28;19924;-30
2022/01/03 03:01:45;;;;;;;;;;;;;;;;;;5095997;28;20247;-31
2022/01/03 03:04:11;;;;;;;;;;;;;;;;;;5095595;28;19912;-30
2022/01/03 03:06:37;;;;;;;;;;;;;;;;;;5095515;28;19911;-30
2022/01/03 03:09:07;;;;;;;;;;;;;;;;;;5095559;28;19912;-32
2022/01/03 03:11:34;;;;;;;;;;;;;;;;;;5095782;28;19912;-33
2022/01/03 03:14:00;;;;;;;;;;;;;;;;;;5095428;28;19912;-31
2022/01/03 03:16:26;;;;;;;;;;;;;;;;;;5095734;28;19919;-30
2022/01/03 03:18:52;;;;;;;;;;;;;;;;;;5095216;28;20271;-32
2022/01/03 03:21:18;;;;;;;;;;;;;;;;;;5094354;28;20355;-32
2022/01/03 03:23:44;;;;;;;;;;;;;;;;;;5095393;28;19919;-29
2022/01/03 03:26:10;;;;;;;;;;;;;;;;;;5094328;28;19922;-31
2022/01/03 03:28:36;;;;;;;;;;;;;;;;;;5095221;28;19999;-30
2022/01/03 03:31:02;;;;;;;;;;;;;;;;;;5094231;28;19969;-29
2022/01/03 03:33:29;;;;;;;;;;;;;;;;;;5095142;28;20301;-32
2022/01/03 03:35:55;;;;;;;;;;;;;;;;;;5095115;28;19912;-30
2022/01/03 03:38:25;;;;;;;;;;;;;;;;;;5095136;28;21880;-31
2022/01/03 03:40:51;;;;;;;;;;;;;;;;;;5095382;28;20309;-27
2022/01/03 03:43:17;;;;;;;;;;;;;;;;;;5095267;28;19935;-30
2022/01/03 03:45:43;;;;;;;;;;;;;;;;;;5095042;28;20270;-34
2022/01/03 03:48:09;;;;;;;;;;;;;;;;;;5095020;28;19908;-30
2022/01/03 03:50:35;;;;;;;;;;;;;;;;;;5094984;28;19919;-32
2022/01/03 03:53:01;;;;;;;;;;;;;;;;;;5093918;28;19916;-33
2022/01/03 03:55:28;;;;;;;;;;;;;;;;;;5094952;28;19995;-33
2022/01/03 03:57:54;;;;;;;;;;;;;;;;;;5093933;28;19912;-30
2022/01/03 04:00:20;;;;;;;;;;;;;;;;;;5094910;28;19916;-29
2022/01/03 04:02:46;;;;;;;;;;;;;;;;;;5095013;28;20016;-32
2022/01/03 04:05:12;;;;;;;;;;;;;;;;;;5094853;28;19922;-33
2022/01/03 04:07:38;;;;;;;;;;;;;;;;;;5094915;28;19999;-29
2022/01/03 04:10:04;;;;;;;;;;;;;;;;;;5095395;28;19915;-29
2022/01/03 04:12:30;;;;;;;;;;;;;;;;;;5094771;28;19972;-30
2022/01/03 04:14:56;;;;;;;;;;;;;;;;;;5094783;28;19958;-35
2022/01/03 04:17:22;;;;;;;;;;;;;;;;;;5094573;28;19921;-32
2022/01/03 04:19:48;;;;;;;;;;;;;;;;;;5097030;28;20009;-36
2022/01/03 04:22:14;;;;;;;;;;;;;;;;;;5098712;28;19912;-33
2022/01/03 04:24:40;;;;;;;;;;;;;;;;;;5099045;28;19918;-29
2022/01/03 04:27:06;;;;;;;;;;;;;;;;;;5098737;28;19912;-30
2022/01/03 04:29:32;;;;;;;;;;;;;;;;;;5098666;28;19916;-29
2022/01/03 04:31:58;;;;;;;;;;;;;;;;;;5098525;28;19914;-32
2022/01/03 04:34:24;;;;;;;;;;;;;;;;;;5098541;28;19998;-31
2022/01/03 04:36:50;;;;;;;;;;;;;;;;;;5098486;28;19916;-30
2022/01/03 04:39:16;;;;;;;;;;;;;;;;;;5098604;28;19912;-29
2022/01/03 04:41:42;;;;;;;;;;;;;;;;;;5098276;28;19912;-30
2022/01/03 04:44:08;;;;;;;;;;;;;;;;;;5098536;28;19921;-36
2022/01/03 04:46:34;;;;;;;;;;;;;;;;;;5097213;28;19916;-30
2022/01/03 04:49:00;;;;;;;;;;;;;;;;;;5098200;28;19970;-28
2022/01/03 04:51:26;;;;;;;;;;;;;;;;;;5098292;28;19920;-31
2022/01/03 04:53:52;;;;;;;;;;;;;;;;;;5097983;28;19916;-33
2022/01/03 04:56:18;;;;;;;;;;;;;;;;;;5097923;28;19958;-32
2022/01/03 04:58:44;;;;;;;;;;;;;;;;;;5098004;28;19916;-34
2022/01/03 05:03:46;;;;;;;;;;;;;;;;;;5160842;22;20329;-25
2022/01/03 05:06:12;;;;;;;;;;;;;;;;;;5037505;28;19923;-25
2022/01/03 05:08:39;;;;;;;;;;;;;;;;;;5037412;28;19941;-24
2022/01/03 05:11:05;;;;;;;;;;;;;;;;;;5036424;28;20355;-25
2022/01/03 05:13:31;;;;;;;;;;;;;;;;;;5037531;28;19924;-33
2022/01/03 05:15:57;;;;;;;;;;;;;;;;;;5037596;28;19921;-25
2022/01/03 05:18:24;;;;;;;;;;;;;;;;;;5037429;28;20200;-24
2022/01/03 05:20:50;;;;;;;;;;;;;;;;;;5037053;28;20358;-25
2022/01/03 05:23:18;;;;;;;;;;;;;;;;;;5037049;28;20263;-24
2022/01/03 05:25:46;;;;;;;;;;;;;;;;;;5019549;28;20003;-24
2022/01/03 05:28:12;;;;;;;;;;;;;;;;;;5037082;28;20255;-24
2022/01/03 05:30:38;;;;;;;;;;;;;;;;;;5035951;28;20012;-24
2022/01/03 05:33:04;;;;;;;;;;;;;;;;;;5036748;28;19924;-24
2022/01/03 05:35:30;;;;;;;;;;;;;;;;;;5037150;28;20302;-26
2022/01/03 05:37:56;;;;;;;;;;;;;;;;;;5036922;28;19913;-26
2022/01/03 05:40:24;;;;;;;;;;;;;;;;;;5036631;28;19924;-26
2022/01/03 05:42:51;;;;;;;;;;;;;;;;;;5036799;28;19917;-26
2022/01/03 05:45:17;;;;;;;;;;;;;;;;;;5036649;28;20344;-26
2022/01/03 05:47:46;;;;;;;;;;;;;;;;;;5019140;28;19921;-26
2022/01/03 05:50:13;;;;;;;;;;;;;;;;;;5036485;28;19921;-26
2022/01/03 05:52:40;;;;;;;;;;;;;;;;;;5036350;28;20316;-26
2022/01/03 05:55:06;;;;;;;;;;;;;;;;;;5019582;28;19937;-26
2022/01/03 05:57:32;;;;;;;;;;;;;;;;;;5036237;28;20374;-23
2022/01/03 05:59:59;;;;;;;;;;;;;;;;;;5036112;28;20423;-24
2022/01/03 06:02:29;;;;;;;;;;;;;;;;;;5035900;28;20222;-26
2022/01/03 06:05:00;;;;;;;;;;;;;;;;;;5036394;28;19924;-26
2022/01/03 06:07:27;;;;;;;;;;;;;;;;;;5036179;28;20004;-26
2022/01/03 06:09:54;;;;;;;;;;;;;;;;;;5019120;28;19960;-26
2022/01/03 06:12:20;;;;;;;;;;;;;;;;;;5036191;28;20251;-26
2022/01/03 06:14:47;;;;;;;;;;;;;;;;;;5036130;28;19913;-26
2022/01/03 06:17:14;;;;;;;;;;;;;;;;;;5035855;28;20250;-26
2022/01/03 06:19:40;;;;;;;;;;;;;;;;;;5035756;28;20193;-26
2022/01/03 06:22:09;;;;;;;;;;;;;;;;;;5035591;28;19909;-26
2022/01/03 06:24:37;;;;;;;;;;;;;;;;;;5035687;28;19909;-26
2022/01/03 06:27:03;;;;;;;;;;;;;;;;;;5035771;28;19913;-26
2022/01/03 06:29:30;;;;;;;;;;;;;;;;;;5035513;28;19913;-25
2022/01/03 06:31:59;;;;;;;;;;;;;;;;;;5035507;28;19920;-25
2022/01/03 06:34:25;;;;;;;;;;;;;;;;;;5035471;28;19913;-25
2022/01/03 06:36:51;;;;;;;;;;;;;;;;;;5035754;28;19920;-25
2022/01/03 06:39:17;;;;;;;;;;;;;;;;;;5035348;28;19931;-26
2022/01/03 06:41:44;;;;;;;;;;;;;;;;;;5034691;28;19909;-25
2022/01/03 06:44:10;;;;;;;;;;;;;;;;;;5035290;28;19928;-24
2022/01/03 06:46:36;;;;;;;;;;;;;;;;;;5035481;28;19909;-24
2022/01/03 06:49:05;;;;;;;;;;;;;;;;;;5035286;28;20293;-25
2022/01/03 06:51:34;;;;;;;;;;;;;;;;;;5035574;28;19992;-25
2022/01/03 06:54:02;;;;;;;;;;;;;;;;;;5035396;28;20263;-25
2022/01/03 06:56:29;;;;;;;;;;;;;;;;;;5035286;28;19913;-26
2022/01/03 06:58:56;;;;;;;;;;;;;;;;;;5035029;28;19913;-26
2022/01/03 07:04:14;;;;;;;;;;;;;;;;;;5034721;28;19932;-24
2022/01/03 07:06:40;;;;;;;;;;;;;;;;;;5034737;28;19917;-24
2022/01/03 07:09:08;;;;;;;;;;;;;;;;;;5017246;28;19913;-24
2022/01/03 07:11:34;;;;;;;;;;;;;;;;;;5034892;28;19913;-26
2022/01/03 07:19:31;;;;;;;;;;;;;;;;;;5034740;28;20327;-25
2022/01/03 07:22:04;;;;;;;;;;;;;;;;;;5016695;28;22101;-25
2022/01/03 07:24:32;;;;;;;;;;;;;;;;;;5034357;28;19921;-25
2022/01/03 07:27:00;;;;;;;;;;;;;;;;;;5016938;28;19915;-25
2022/01/03 07:29:26;;;;;;;;;;;;;;;;;;5034162;28;19967;-25
2022/01/03 07:31:53;;;;;;;;;;;;;;;;;;5034106;28;19988;-25
2022/01/03 07:34:19;;;;;;;;;;;;;;;;;;5035111;28;19913;-25
2022/01/03 07:36:46;;;;;;;;;;;;;;;;;;5034134;28;20012;-25
2022/01/03 07:39:13;;;;;;;;;;;;;;;;;;5016698;28;19921;-25
2022/01/03 07:41:39;;;;;;;;;;;;;;;;;;5034779;28;20274;-26
2022/01/03 07:44:06;;;;;;;;;;;;;;;;;;5034949;28;20259;-26
2022/01/03 07:46:33;;;;;;;;;;;;;;;;;;5034627;28;19932;-26
2022/01/03 07:48:59;;;;;;;;;;;;;;;;;;5034646;28;19995;-25
2022/01/03 07:51:27;;;;;;;;;;;;;;;;;;5034741;28;19921;-25
2022/01/03 07:53:55;;;;;;;;;;;;;;;;;;5033688;28;19913;-25
2022/01/03 07:56:21;;;;;;;;;;;;;;;;;;5034294;28;19914;-25
2022/01/03 07:58:48;;;;;;;;;;;;;;;;;;5034050;28;20352;-25
2022/01/03 08:01:14;;;;;;;;;;;;;;;;;;5034643;28;19913;-25
2022/01/03 08:03:40;;;;;;;;;;;;;;;;;;5033893;28;20326;-25
2022/01/03 08:06:08;;;;;;;;;;;;;;;;;;5016658;28;19909;-25
2022/01/03 08:08:34;;;;;;;;;;;;;;;;;;5034192;28;19913;-25
2022/01/03 08:11:01;;;;;;;;;;;;;;;;;;5034533;28;19936;-25
2022/01/03 08:13:28;;;;;;;;;;;;;;;;;;5034131;28;19914;-25
2022/01/03 08:15:54;;;;;;;;;;;;;;;;;;5034135;28;19909;-25
2022/01/03 08:18:21;;;;;;;;;;;;;;;;;;5033970;28;20375;-25
2022/01/03 08:20:47;;;;;;;;;;;;;;;;;;5034515;28;19913;-25
2022/01/03 08:23:13;;;;;;;;;;;;;;;;;;5034315;28;19921;-25
2022/01/03 08:25:41;;;;;;;;;;;;;;;;;;5034320;28;20342;-25
2022/01/03 08:28:07;;;;;;;;;;;;;;;;;;5034186;28;19917;-25
2022/01/03 08:30:34;;;;;;;;;;;;;;;;;;5016830;28;19928;-25
2022/01/03 08:33:00;;;;;;;;;;;;;;;;;;5034049;28;19913;-25
2022/01/03 08:35:26;;;;;;;;;;;;;;;;;;5033897;28;19979;-25
2022/01/03 08:37:54;;;;;;;;;;;;;;;;;;5033818;28;20284;-25
2022/01/03 08:40:20;;;;;;;;;;;;;;;;;;5033696;28;19921;-25
2022/01/03 08:42:47;;;;;;;;;;;;;;;;;;5033880;28;20237;-25
2022/01/03 08:45:13;;;;;;;;;;;;;;;;;;5034248;28;19968;-24
2022/01/03 08:47:39;;;;;;;;;;;;;;;;;;5034055;28;19996;-25
2022/01/03 08:50:08;;;;;;;;;;;;;;;;;;5033771;28;19909;-25
2022/01/03 08:52:34;;;;;;;;;;;;;;;;;;5033944;28;19920;-25
2022/01/03 08:55:00;;;;;;;;;;;;;;;;;;5016322;28;19917;-25
2022/01/03 08:57:26;;;;;;;;;;;;;;;;;;5033749;28;19999;-25
2022/01/03 08:59:52;;;;;;;;;;;;;;;;;;5016309;28;19990;-25
2022/01/03 09:02:18;;;;;;;;;;;;;;;;;;5033900;28;19913;-25
2022/01/03 09:04:44;;;;;;;;;;;;;;;;;;5016766;28;19928;-25
2022/01/03 09:07:10;;;;;;;;;;;;;;;;;;5019876;28;19913;-25
2022/01/03 09:09:36;;;;;;;;;;;;;;;;;;5037650;28;19908;-25
2022/01/03 09:12:03;;;;;;;;;;;;;;;;;;5019429;28;19913;-25
2022/01/03 09:14:30;;;;;;;;;;;;;;;;;;5037470;28;19916;-26
2022/01/03 09:19:48;;;;;;;;;;;;;;;;;;5037147;28;19928;-25
2022/01/03 09:22:19;;;;;;;;;;;;;;;;;;5036864;28;19967;-25
2022/01/03 09:28:48;;;;;;;;;;;;;;;;;;5037272;28;19924;-26
2022/01/03 09:30:26;;;;;;;;;;;;;;;;;;5037259;28;19921;-26
2022/01/03 09:32:53;;;;;;;;;;;;;;;;;;5019238;28;19913;-26
2022/01/03 09:35:19;;;;;;;;;;;;;;;;;;5019288;28;19925;-26
2022/01/03 09:37:47;;;;;;;;;;;;;;;;;;5036668;28;20291;-26
2022/01/03 09:40:15;;;;;;;;;;;;;;;;;;5036835;28;20295;-26
2022/01/03 09:42:41;;;;;;;;;;;;;;;;;;5036900;28;19925;-26
2022/01/03 09:45:11;;;;;;;;;;;;;;;;;;5036702;28;19939;-26
2022/01/03 09:47:38;;;;;;;;;;;;;;;;;;5036601;28;19921;-26
2022/01/03 09:50:06;;;;;;;;;;;;;;;;;;5036478;28;19948;-24
2022/01/03 09:52:32;;;;;;;;;;;;;;;;;;5036242;28;20358;-25
2022/01/03 09:54:59;;;;;;;;;;;;;;;;;;5036506;28;19985;-24
2022/01/03 09:57:25;;;;;;;;;;;;;;;;;;5035877;28;19913;-25
2022/01/03 09:59:53;;;;;;;;;;;;;;;;;;5035978;28;20217;-25
2022/01/03 10:02:19;;;;;;;;;;;;;;;;;;5035735;28;19909;-25
2022/01/03 10:04:45;;;;;;;;;;;;;;;;;;5018194;28;19927;-25
2022/01/03 10:07:14;;;;;;;;;;;;;;;;;;5018232;28;20025;-25
2022/01/03 10:09:41;;;;;;;;;;;;;;;;;;5035556;28;19917;-24
2022/01/03 10:12:07;;;;;;;;;;;;;;;;;;5035860;28;19928;-24
2022/01/03 10:14:33;;;;;;;;;;;;;;;;;;5035442;28;19939;-24
2022/01/03 10:17:00;;;;;;;;;;;;;;;;;;5034841;28;20095;-25
2022/01/03 10:19:26;;;;;;;;;;;;;;;;;;5035463;28;19928;-25
2022/01/03 10:21:53;;;;;;;;;;;;;;;;;;5035339;28;19917;-25
2022/01/03 10:24:19;;;;;;;;;;;;;;;;;;5017889;28;20041;-25
2022/01/03 10:26:55;;;;;;;;;;;;;;;;;;5035523;28;20336;-25
2022/01/03 10:32:12;;;;;;;;;;;;;;;;;;5035522;28;20012;-25
2022/01/03 10:34:39;;;;;;;;;;;;;;;;;;5035494;28;19967;-25
2022/01/03 10:37:05;;;;;;;;;;;;;;;;;;5018150;28;20352;-25
2022/01/03 10:39:34;;;;;;;;;;;;;;;;;;5035441;28;20325;-24
2022/01/03 10:42:00;;;;;;;;;;;;;;;;;;5035687;28;19924;-25
2022/01/03 10:44:26;;;;;;;;;;;;;;;;;;5035648;28;19913;-25
2022/01/03 10:46:52;;;;;;;;;;;;;;;;;;5035732;28;20251;-25
2022/01/03 10:49:20;;;;;;;;;;;;;;;;;;5035458;28;19913;-26
2022/01/03 10:51:46;;;;;;;;;;;;;;;;;;5035627;28;20247;-26
2022/01/03 10:54:12;;;;;;;;;;;;;;;;;;5017967;28;20355;-25
2022/01/03 10:56:40;;;;;;;;;;;;;;;;;;5035590;28;19913;-25
2022/01/03 10:59:06;;;;;;;;;;;;;;;;;;5035117;28;19924;-26
2022/01/03 11:01:34;;;;;;;;;;;;;;;;;;5035206;28;19909;-25
2022/01/03 11:04:03;;;;;;;;;;;;;;;;;;5034835;28;19937;-25
2022/01/03 11:11:40;;;;;;;;;;;;;;;;;;5035070;28;19920;-25
2022/01/03 11:14:06;;;;;;;;;;;;;;;;;;5035005;28;19968;-26
2022/01/03 11:16:33;;;;;;;;;;;;;;;;;;5035364;28;19991;-25
2022/01/03 11:18:59;;;;;;;;;;;;;;;;;;5034736;28;19917;-25
2022/01/03 11:21:28;;;;;;;;;;;;;;;;;;5034939;28;19909;-25
2022/01/03 11:23:54;;;;;;;;;;;;;;;;;;5034582;28;19913;-25
2022/01/03 11:26:20;;;;;;;;;;;;;;;;;;5034852;28;19921;-25
2022/01/03 11:28:46;;;;;;;;;;;;;;;;;;5017321;28;19917;-25
2022/01/03 11:31:12;;;;;;;;;;;;;;;;;;5034819;28;19962;-25
2022/01/03 11:33:39;;;;;;;;;;;;;;;;;;5034521;28;19967;-25
2022/01/03 11:36:06;;;;;;;;;;;;;;;;;;5017378;28;19919;-25
2022/01/03 11:38:32;;;;;;;;;;;;;;;;;;5017092;28;19945;-25
2022/01/03 11:41:00;;;;;;;;;;;;;;;;;;5034907;28;19910;-26
2022/01/03 11:43:26;;;;;;;;;;;;;;;;;;5034960;28;20368;-25
2022/01/03 11:45:52;;;;;;;;;;;;;;;;;;5034866;28;20255;-26
2022/01/03 11:48:20;;;;;;;;;;;;;;;;;;5034729;28;19909;-25
2022/01/03 11:50:46;;;;;;;;;;;;;;;;;;5034581;28;19913;-25
2022/01/03 11:53:14;;;;;;;;;;;;;;;;;;5034452;28;19967;-25
2022/01/03 11:55:42;;;;;;;;;;;;;;;;;;5016655;28;20020;-26
2022/01/03 11:58:13;;;;;;;;;;;;;;;;;;5016725;28;19910;-27
2022/01/03 12:03:39;;;;;;;;;;;;;;;;;;5033875;28;19991;-25
2022/01/03 12:06:05;;;;;;;;;;;;;;;;;;5034148;28;19913;-25
2022/01/03 12:08:34;;;;;;;;;;;;;;;;;;5033940;28;19912;-27
2022/01/03 12:11:00;;;;;;;;;;;;;;;;;;5016212;28;19924;-26
2022/01/03 12:13:26;;;;;;;;;;;;;;;;;;5016011;28;19939;-26
2022/01/03 12:15:52;;;;;;;;;;;;;;;;;;5034123;28;19960;-27
2022/01/03 12:18:19;;;;;;;;;;;;;;;;;;5033162;28;19950;-26
2022/01/03 12:20:46;;;;;;;;;;;;;;;;;;5033368;28;20402;-27
2022/01/03 12:23:13;;;;;;;;;;;;;;;;;;5033421;28;20051;-26
2022/01/03 12:25:41;;;;;;;;;;;;;;;;;;5033532;28;19920;-27
2022/01/03 12:28:08;;;;;;;;;;;;;;;;;;5015751;28;19909;-25
2022/01/03 12:30:34;;;;;;;;;;;;;;;;;;5033455;28;19936;-26
2022/01/03 12:33:00;;;;;;;;;;;;;;;;;;5033290;28;20098;-26
2022/01/03 12:35:26;;;;;;;;;;;;;;;;;;5033645;28;19920;-26
2022/01/03 12:37:52;;;;;;;;;;;;;;;;;;5033998;28;19977;-26
2022/01/03 12:40:18;;;;;;;;;;;;;;;;;;5035438;28;19963;-26
2022/01/03 12:42:44;;;;;;;;;;;;;;;;;;5037589;28;20263;-26
2022/01/03 12:45:10;;;;;;;;;;;;;;;;;;5020246;28;19967;-26
2022/01/03 12:47:36;;;;;;;;;;;;;;;;;;5037760;28;19914;-26
2022/01/03 12:50:02;;;;;;;;;;;;;;;;;;5037701;28;19952;-26
2022/01/03 12:52:28;;;;;;;;;;;;;;;;;;5037750;28;19966;-26
2022/01/03 12:54:54;;;;;;;;;;;;;;;;;;5037698;28;20376;-26
2022/01/03 12:57:22;;;;;;;;;;;;;;;;;;5037917;28;19917;-25
2022/01/03 12:59:48;;;;;;;;;;;;;;;;;;5037445;28;19921;-25
2022/01/03 13:02:14;;;;;;;;;;;;;;;;;;5019692;28;19913;-25
2022/01/03 13:04:40;;;;;;;;;;;;;;;;;;5037206;28;20380;-25
2022/01/03 13:07:06;;;;;;;;;;;;;;;;;;5037353;28;19919;-25
2022/01/03 13:09:32;;;;;;;;;;;;;;;;;;5037650;28;19909;-25
2022/01/03 13:12:05;;;;;;;;;;;;;;;;;;5037464;28;19913;-26
2022/01/03 13:14:31;;;;;;;;;;;;;;;;;;5019846;28;19968;-26
2022/01/03 13:19:49;;;;;;;;;;;;;;;;;;5036959;28;20371;-25
2022/01/03 13:22:16;;;;;;;;;;;;;;;;;;5019626;28;19924;-25
2022/01/03 13:24:44;;;;;;;;;;;;;;;;;;5037063;28;20012;-25
2022/01/03 13:27:12;;;;;;;;;;;;;;;;;;5036999;28;19953;-25
2022/01/03 13:29:41;;;;;;;;;;;;;;;;;;5037416;28;20259;-25
2022/01/03 13:32:07;;;;;;;;;;;;;;;;;;5037126;28;19972;-25
2022/01/03 13:34:34;;;;;;;;;;;;;;;;;;5019568;28;20241;-25
2022/01/03 13:37:00;;;;;;;;;;;;;;;;;;5037171;28;19913;-25
2022/01/03 13:39:26;;;;;;;;;;;;;;;;;;5036689;28;19917;-25
2022/01/03 13:41:52;;;;;;;;;;;;;;;;;;5019184;28;19920;-24
2022/01/03 13:44:21;;;;;;;;;;;;;;;;;;5036780;28;19909;-24
2022/01/03 13:49:32;;;;;;;;;;;;;;;;;;5036860;28;19923;-25
2022/01/03 13:51:58;;;;;;;;;;;;;;;;;;5035278;28;19996;-25
2022/01/03 13:54:26;;;;;;;;;;;;;;;;;;5036708;28;19909;-24
2022/01/03 13:56:52;;;;;;;;;;;;;;;;;;5036014;28;20366;-24
2022/01/03 13:59:19;;;;;;;;;;;;;;;;;;5036447;28;19913;-25
2022/01/03 14:01:45;;;;;;;;;;;;;;;;;;5018235;28;19979;-25
2022/01/03 14:04:11;;;;;;;;;;;;;;;;;;5036054;28;19921;-26
2022/01/03 14:06:39;;;;;;;;;;;;;;;;;;5036634;28;19921;-26
2022/01/03 14:09:05;;;;;;;;;;;;;;;;;;5036465;28;19913;-25
2022/01/03 14:11:31;;;;;;;;;;;;;;;;;;5018574;28;19913;-26
2022/01/03 14:13:59;;;;;;;;;;;;;;;;;;5036044;28;19936;-26
2022/01/03 14:16:27;;;;;;;;;;;;;;;;;;5036002;28;20263;-26
2022/01/03 14:18:54;;;;;;;;;;;;;;;;;;5036411;28;20279;-26
2022/01/03 14:21:20;;;;;;;;;;;;;;;;;;5018086;28;20036;-26
2022/01/03 14:23:46;;;;;;;;;;;;;;;;;;5035406;28;19909;-26
2022/01/03 14:26:14;;;;;;;;;;;;;;;;;;5035882;28;20378;-27
2022/01/03 14:28:40;;;;;;;;;;;;;;;;;;5018115;28;19913;-26
2022/01/03 14:31:08;;;;;;;;;;;;;;;;;;5035887;28;19909;-25
2022/01/03 14:33:39;;;;;;;;;;;;;;;;;;5035498;28;19913;-25
2022/01/03 14:36:05;;;;;;;;;;;;;;;;;;5035287;28;20252;-25
2022/01/03 14:38:33;;;;;;;;;;;;;;;;;;5035390;28;20003;-26
2022/01/03 14:40:59;;;;;;;;;;;;;;;;;;5035582;28;20414;-25
2022/01/03 14:43:26;;;;;;;;;;;;;;;;;;5035119;28;19951;-26
2022/01/03 14:45:53;;;;;;;;;;;;;;;;;;5035300;28;20267;-26
2022/01/03 14:48:19;;;;;;;;;;;;;;;;;;5035360;28;19947;-26
2022/01/03 14:50:45;;;;;;;;;;;;;;;;;;5017574;28;19924;-26
2022/01/03 14:53:12;;;;;;;;;;;;;;;;;;5035235;28;20059;-24
2022/01/03 14:55:38;;;;;;;;;;;;;;;;;;5035242;28;20213;-25
2022/01/03 14:58:04;;;;;;;;;;;;;;;;;;5035271;28;19913;-25
2022/01/03 15:00:30;;;;;;;;;;;;;;;;;;5035141;28;20197;-25
2022/01/03 15:02:56;;;;;;;;;;;;;;;;;;5034433;28;20336;-25
2022/01/03 15:05:22;;;;;;;;;;;;;;;;;;5035079;28;19979;-25
2022/01/03 15:07:48;;;;;;;;;;;;;;;;;;5034861;28;19917;-25
2022/01/03 15:10:14;;;;;;;;;;;;;;;;;;5034827;28;19913;-25
2022/01/03 15:12:41;;;;;;;;;;;;;;;;;;5034737;28;20264;-25
2022/01/03 15:15:09;;;;;;;;;;;;;;;;;;5034658;28;19925;-25
2022/01/03 15:17:35;;;;;;;;;;;;;;;;;;5035441;28;20000;-25
2022/01/03 15:20:01;;;;;;;;;;;;;;;;;;5034848;28;19917;-25
2022/01/03 15:22:28;;;;;;;;;;;;;;;;;;5017256;28;20258;-25
2022/01/03 15:24:53;;;;;;;;;;;;;;;;;;5034515;28;20382;-25
2022/01/03 15:27:20;;;;;;;;;;;;;;;;;;5034685;28;19909;-24
2022/01/03 15:29:46;;;;;;;;;;;;;;;;;;5034546;28;19945;-25
2022/01/03 15:32:12;;;;;;;;;;;;;;;;;;5034326;28;19909;-25
2022/01/03 15:34:38;;;;;;;;;;;;;;;;;;5034458;28;19913;-25
2022/01/03 15:37:04;;;;;;;;;;;;;;;;;;5016868;28;19909;-25
2022/01/03 15:39:30;;;;;;;;;;;;;;;;;;5034051;28;19913;-25
2022/01/03 15:41:56;;;;;;;;;;;;;;;;;;5034207;28;19913;-25
2022/01/03 15:44:22;;;;;;;;;;;;;;;;;;5034551;28;20011;-24
2022/01/03 15:46:48;;;;;;;;;;;;;;;;;;5016892;28;20363;-24
2022/01/03 15:49:14;;;;;;;;;;;;;;;;;;5034272;28;19948;-24
2022/01/03 15:51:40;;;;;;;;;;;;;;;;;;5034167;28;19920;-23
2022/01/03 15:54:08;;;;;;;;;;;;;;;;;;5016741;28;20399;-24
2022/01/03 15:56:35;;;;;;;;;;;;;;;;;;5016095;28;20414;-24
2022/01/03 15:59:01;;;;;;;;;;;;;;;;;;5033226;28;19921;-24
2022/01/03 16:01:27;;;;;;;;;;;;;;;;;;5033323;28;19921;-26
2022/01/03 16:03:53;;;;;;;;;;;;;;;;;;5033088;28;19921;-25
2022/01/03 16:06:19;;;;;;;;;;;;;;;;;;5033223;28;20245;-25
2022/01/03 16:08:45;;;;;;;;;;;;;;;;;;5033451;28;19913;-25
2022/01/03 16:11:11;;;;;;;;;;;;;;;;;;5015803;28;19909;-25
2022/01/03 16:13:37;;;;;;;;;;;;;;;;;;5033174;28;19949;-25
2022/01/03 16:16:03;;;;;;;;;;;;;;;;;;5018349;28;19914;-25
2022/01/03 16:18:32;;;;;;;;;;;;;;;;;;5019636;28;19920;-26
2022/01/03 16:20:58;;;;;;;;;;;;;;;;;;5037797;28;20055;-26
2022/01/03 16:23:24;;;;;;;;;;;;;;;;;;5037734;28;19978;-26
2022/01/03 16:25:50;;;;;;;;;;;;;;;;;;5037713;28;19917;-25
2022/01/03 16:28:16;;;;;;;;;;;;;;;;;;5020643;28;20328;-32
2022/01/03 16:30:45;;;;;;;;;;;;;;;;;;5037957;28;20326;-26
2022/01/03 16:33:12;;;;;;;;;;;;;;;;;;5037817;28;19913;-25
2022/01/03 16:35:38;;;;;;;;;;;;;;;;;;5037643;28;19914;-25
2022/01/03 16:38:04;;;;;;;;;;;;;;;;;;5037251;28;20007;-24
2022/01/03 16:40:30;;;;;;;;;;;;;;;;;;5037246;28;19972;-25
2022/01/03 16:42:56;;;;;;;;;;;;;;;;;;5038010;28;19913;-24
2022/01/03 16:45:22;;;;;;;;;;;;;;;;;;5020694;28;19913;-25
2022/01/03 16:47:48;;;;;;;;;;;;;;;;;;5037847;28;19936;-24
2022/01/03 16:50:14;;;;;;;;;;;;;;;;;;5037479;28;19932;-24
2022/01/03 16:52:41;;;;;;;;;;;;;;;;;;5037520;28;19972;-24
2022/01/03 16:55:07;;;;;;;;;;;;;;;;;;5037462;28;19970;-24
2022/01/03 16:57:33;;;;;;;;;;;;;;;;;;5037183;28;19988;-24
2022/01/03 17:00:04;;;;;;;;;;;;;;;;;;5036888;28;19938;-25
2022/01/03 17:02:32;;;;;;;;;;;;;;;;;;5037150;28;19913;-24
2022/01/03 17:04:58;;;;;;;;;;;;;;;;;;5036759;28;20276;-24
2022/01/03 17:07:26;;;;;;;;;;;;;;;;;;5037559;28;19913;-25
2022/01/03 17:09:52;;;;;;;;;;;;;;;;;;5037192;28;20004;-25
2022/01/03 17:12:18;;;;;;;;;;;;;;;;;;5037003;28;19925;-25
2022/01/03 17:14:44;;;;;;;;;;;;;;;;;;5036998;28;19920;-25
2022/01/03 17:17:10;;;;;;;;;;;;;;;;;;5037299;28;19957;-24